F9741 Weather Reports


Display with metric or nautical units.
time (UTC)temp
F
wind
direction
speed
MPH
gust
MPH
rain 1hr
in
rain 24hr
in
rain mn
in
humidity
%
barometer
mb
20220706031210 75 130 3.0 9.0 0.00 0.00 0.00 80 1014.3
20220706030704 75 59 3.0 9.0 0.00 0.00 0.00 80 1014.4
20220706030200 75 130 4.0 10.0 0.00 0.00 0.00 80 1014.1
20220706025653 75 118 4.0 10.0 0.00 0.00 0.00 80 1014.2
20220706025147 75 130 3.0 12.0 0.00 0.00 0.00 80 1014.2
20220706024643 75 40 3.0 12.0 0.00 0.00 0.00 80 1013.9
20220706024144 75 28 5.0 13.0 0.00 0.00 0.00 81 1013.8
20220706023644 75 75 4.0 13.0 0.00 0.00 0.00 81 1013.7
20220706023142 75 96 4.0 9.0 0.00 0.00 0.00 81 1013.6
20220706022639 75 124 4.0 9.0 0.00 0.00 0.00 81 1013.6
20220706022140 75 66 3.0 9.0 0.00 0.00 0.00 81 1013.6
20220706021642 75 42 3.0 9.0 0.00 0.00 0.00 81 1013.8
20220706021141 76 21 3.0 12.0 0.00 0.00 0.00 81 1013.7
20220706020637 76 64 4.0 12.0 0.00 0.00 0.00 81 1013.7
20220706020136 76 94 5.0 12.0 0.00 0.00 0.00 81 1013.7
20220706015637 76 128 5.0 12.0 0.00 0.00 0.00 80 1013.5
20220706015137 76 343 4.0 12.0 0.00 0.00 0.00 80 1013.5
20220706014635 76 26 3.0 9.0 0.00 0.00 0.00 81 1013.4
20220706014137 76 81 3.0 9.0 0.00 0.00 0.00 81 1013.7
20220706013632 76 103 3.0 12.0 0.00 0.00 0.00 81 1013.6
20220706013132 76 82 3.0 12.0 0.00 0.00 0.00 81 1013.7
20220706012633 76 33 4.0 12.0 0.00 0.00 0.00 82 1013.9
20220706012133 76 54 4.0 12.0 0.00 0.00 0.00 82 1013.6
20220706011628 76 80 4.0 10.0 0.00 0.00 0.00 83 1013.7
20220706011132 76 112 4.0 10.0 0.00 0.00 0.00 83 1013.8
20220706010632 76 34 4.0 12.0 0.00 0.00 0.00 82 1013.8
20220706010129 76 74 4.0 12.0 0.00 0.00 0.00 82 1013.7
20220706005628 76 76 5.0 15.0 0.00 0.00 0.00 82 1013.7
20220706005127 77 119 6.0 15.0 0.00 0.00 0.00 81 1013.5
20220706004624 77 5 7.0 16.0 0.00 0.00 0.00 80 1013.0
20220706004125 77 339 7.0 16.0 0.00 0.00 0.00 79 1013.4
20220706003626 77 349 6.0 16.0 0.00 0.00 0.00 78 1013.4
20220706003120 77 42 6.0 18.0 0.00 0.00 0.00 78 1013.0
20220706002624 77 19 7.0 18.0 0.00 0.00 0.00 79 1012.6
20220706002125 77 53 7.0 20.0 0.00 0.00 0.00 80 1012.2
20220706001617 76 53 6.0 20.0 0.00 0.00 0.00 80 1012.0
20220706001117 77 34 8.0 20.0 0.00 0.00 0.00 80 1012.2
20220706000619 77 87 9.0 20.0 0.00 0.00 0.00 77 1012.6
20220706000120 78 22 8.0 19.0 0.00 0.00 0.00 73 1012.8
20220705235619 79 57 7.0 19.0 0.00 0.00 0.00 72 1012.7
20220705235116 80 22 7.0 24.0 0.00 0.00 0.00 70 1012.7
20220705234616 81 56 9.0 24.0 0.00 0.00 0.00 68 1012.7
20220705234117 83 27 9.0 24.0 0.00 0.00 0.00 64 1012.7
20220705233619 89 345 5.0 24.0 0.00 0.00 0.00 56 1012.3
20220705233120 94 286 1.0 8.0 0.00 0.00 0.00 57 1011.8
20220705232617 94 243 1.0 3.0 0.00 0.00 0.00 57 1011.6
20220705232117 95 243 1.0 6.0 0.00 0.00 0.00 54 1011.5
20220705231618 95 217 2.0 6.0 0.00 0.00 0.00 55 1011.1
20220705231120 95 226 3.0 6.0 0.00 0.00 0.00 54 1010.8
20220705230617 95 223 3.0 7.0 0.00 0.00 0.00 53 1010.7
20220705230116 95 215 4.0 8.0 0.00 0.00 0.00 52 1010.7
20220705225616 95 217 4.0 8.0 0.00 0.00 0.00 52 1010.7
20220705225116 95 202 3.0 7.0 0.00 0.00 0.00 53 1010.8
20220705224611 95 225 2.0 7.0 0.00 0.00 0.00 52 1011.0
20220705224106 95 231 2.0 4.0 0.00 0.00 0.00 53 1011.2
20220705223600 95 232 2.0 5.0 0.00 0.00 0.00 54 1011.4
20220705223053 95 236 2.0 5.0 0.00 0.00 0.00 53 1011.3
20220705222548 95 217 2.0 5.0 0.00 0.00 0.00 53 1011.2
20220705222042 95 215 2.0 5.0 0.00 0.00 0.00 53 1011.2
20220705221539 95 232 3.0 5.0 0.00 0.00 0.00 52 1011.3
20220705221032 95 227 3.0 6.0 0.00 0.00 0.00 53 1011.1
20220705220525 95 240 3.0 9.0 0.00 0.00 0.00 53 1011.1
20220705220018 96 214 4.0 9.0 0.00 0.00 0.00 51 1010.8
20220705215509 96 205 4.0 9.0 0.00 0.00 0.00 49 1010.7
20220705215002 96 223 5.0 9.0 0.00 0.00 0.00 48 1010.7
20220705214500 96 236 5.0 17.0 0.00 0.00 0.00 49 1010.6
20220705214002 97 246 5.0 17.0 0.00 0.00 0.00 48 1010.5
20220705213500 97 215 6.0 17.0 0.00 0.00 0.00 48 1010.3
20220705213000 96 198 7.0 17.0 0.00 0.00 0.00 49 1010.5
20220705212459 96 215 7.0 15.0 0.00 0.00 0.00 48 1010.4
20220705211959 97 225 7.0 15.0 0.00 0.00 0.00 47 1010.5
20220705211500 97 204 7.0 11.0 0.00 0.00 0.00 49 1010.5
20220705210959 96 203 6.0 12.0 0.00 0.00 0.00 51 1010.4
20220705210457 96 231 5.0 12.0 0.00 0.00 0.00 49 1010.6
20220705205954 96 263 6.0 12.0 0.00 0.00 0.00 53 1010.6
20220705205454 96 240 6.0 15.0 0.00 0.00 0.00 52 1010.7
20220705204954 96 219 7.0 15.0 0.00 0.00 0.00 53 1011.0
20220705204455 96 164 7.0 15.0 0.00 0.00 0.00 50 1010.9
20220705203953 96 222 5.0 15.0 0.00 0.00 0.00 51 1010.8
20220705203453 96 240 4.0 11.0 0.00 0.00 0.00 53 1011.0
20220705202953 96 157 5.0 11.0 0.00 0.00 0.00 53 1011.0
20220705202452 95 219 5.0 10.0 0.00 0.00 0.00 53 1010.8
20220705201949 95 209 5.0 10.0 0.00 0.00 0.00 52 1010.8
20220705201443 95 200 5.0 12.0 0.00 0.00 0.00 53 1010.7
20220705200936 94 197 6.0 12.0 0.00 0.00 0.00 55 1010.8
20220705200431 94 128 7.0 14.0 0.00 0.00 0.00 54 1010.7
20220705195924 94 199 6.0 16.0 0.00 0.00 0.00 55 1010.8
20220705195418 94 206 6.0 16.0 0.00 0.00 0.00 54 1011.1
20220705194913 94 202 7.0 16.0 0.00 0.00 0.00 54 1011.2
20220705194408 94 227 6.0 16.0 0.00 0.00 0.00 54 1011.3
20220705193901 94 194 5.0 12.0 0.00 0.00 0.00 55 1011.2
20220705193357 93 232 5.0 11.0 0.00 0.00 0.00 54 1011.5
20220705192848 93 196 4.0 12.0 0.00 0.00 0.00 53 1011.6
20220705192341 93 210 4.0 12.0 0.00 0.00 0.00 57 1011.5
20220705191838 93 291 4.0 9.0 0.00 0.00 0.00 55 1011.6
20220705191332 92 183 5.0 9.0 0.00 0.00 0.00 55 1011.7
20220705190825 93 221 4.0 11.0 0.00 0.00 0.00 59 1011.9
20220705190318 92 205 3.0 11.0 0.00 0.00 0.00 56 1011.8
20220705185818 92 201 4.0 11.0 0.00 0.00 0.00 54 1011.9
20220705185306 92 183 4.0 11.0 0.00 0.00 0.00 56 1012.1
20220705184801 92 221 4.0 13.0 0.00 0.00 0.00 58 1012.1
20220705184256 92 117 4.0 13.0 0.00 0.00 0.00 54 1012.2
20220705183748 92 209 5.0 13.0 0.00 0.00 0.00 55 1012.1
20220705183243 92 205 5.0 13.0 0.00 0.00 0.00 57 1012.1
20220705182735 92 234 5.0 10.0 0.00 0.00 0.00 55 1012.2
20220705182229 92 207 5.0 10.0 0.00 0.00 0.00 57 1012.3
20220705181726 91 213 5.0 10.0 0.00 0.00 0.00 56 1012.2
20220705181220 92 137 4.0 9.0 0.00 0.00 0.00 59 1012.2
20220705180717 91 205 4.0 9.0 0.00 0.00 0.00 60 1012.2
20220705180202 91 214 4.0 9.0 0.00 0.00 0.00 56 1012.3
20220705175702 91 208 3.0 7.0 0.00 0.00 0.00 58 1012.3
20220705175203 90 219 4.0 9.0 0.00 0.00 0.00 58 1012.3
20220705174702 90 132 4.0 9.0 0.00 0.00 0.00 57 1012.3
20220705174202 90 180 4.0 8.0 0.00 0.00 0.00 61 1012.3
20220705173702 90 205 4.0 9.0 0.00 0.00 0.00 59 1012.3
20220705173204 90 129 3.0 9.0 0.00 0.00 0.00 61 1012.4
20220705172700 90 133 3.0 11.0 0.00 0.00 0.00 61 1012.6
20220705172200 90 209 3.0 11.0 0.00 0.00 0.00 61 1012.8
20220705171658 90 205 3.0 11.0 0.00 0.00 0.00 62 1012.7
20220705171157 89 244 4.0 11.0 0.00 0.00 0.00 62 1012.8
20220705170654 89 217 4.0 9.0 0.00 0.00 0.00 60 1012.6
20220705170157 89 217 4.0 9.0 0.00 0.00 0.00 62 1012.7
20220705165653 88 215 4.0 8.0 0.00 0.00 0.00 62 1012.6
20220705165153 87 223 4.0 8.0 0.00 0.00 0.00 60 1012.7
20220705164655 87 234 4.0 8.0 0.00 0.00 0.00 61 1012.7
20220705164158 87 215 4.0 8.0 0.00 0.00 0.00 62 1012.7
20220705163652 87 212 3.0 6.0 0.00 0.00 0.00 62 1012.6
20220705163158 88 219 3.0 9.0 0.00 0.00 0.00 59 1012.6
20220705162650 87 236 4.0 9.0 0.00 0.00 0.00 60 1012.6
20220705162145 87 203 4.0 9.0 0.00 0.00 0.00 60 1012.7
20220705161637 87 237 4.0 9.0 0.00 0.00 0.00 59 1012.8
20220705161132 87 224 4.0 8.0 0.00 0.00 0.00 60 1012.7
20220705160624 87 205 4.0 9.0 0.00 0.00 0.00 60 1012.7
20220705160119 87 222 5.0 9.0 0.00 0.00 0.00 60 1012.7
20220705155616 87 219 5.0 11.0 0.00 0.00 0.00 61 1012.7
20220705155107 87 211 5.0 11.0 0.00 0.00 0.00 61 1012.8
20220705154602 86 202 4.0 10.0 0.00 0.00 0.00 61 1012.7
20220705154055 86 214 5.0 10.0 0.00 0.00 0.00 63 1012.8
20220705153552 86 230 6.0 11.0 0.00 0.00 0.00 63 1012.7
20220705153046 86 215 5.0 11.0 0.00 0.00 0.00 62 1012.8
20220705152538 86 190 5.0 11.0 0.00 0.00 0.00 62 1012.8
20220705152032 86 175 5.0 11.0 0.00 0.00 0.00 62 1012.6
20220705151527 86 311 5.0 10.0 0.00 0.00 0.00 63 1012.4
20220705151020 86 96 5.0 9.0 0.00 0.00 0.00 65 1012.4
20220705150514 85 234 5.0 10.0 0.00 0.00 0.00 65 1012.4
20220705150009 85 217 5.0 10.0 0.00 0.00 0.00 63 1012.6
20220705145502 85 211 5.0 10.0 0.00 0.00 0.00 65 1012.6
20220705144956 85 223 5.0 10.0 0.00 0.00 0.00 66 1012.8
20220705144449 84 255 4.0 9.0 0.00 0.00 0.00 66 1012.8
20220705143947 84 213 4.0 9.0 0.00 0.00 0.00 67 1012.8
20220705143441 84 212 4.0 8.0 0.00 0.00 0.00 67 1012.8
20220705142935 85 207 4.0 8.0 0.00 0.00 0.00 68 1012.8
20220705142435 85 221 4.0 10.0 0.00 0.00 0.00 66 1012.8
20220705141935 84 201 4.0 10.0 0.00 0.00 0.00 66 1012.8
20220705141437 84 202 5.0 10.0 0.00 0.00 0.00 64 1012.8
20220705140935 84 237 5.0 10.0 0.00 0.00 0.00 64 1012.9
20220705140435 85 235 4.0 9.0 0.00 0.00 0.00 64 1013.0
20220705135933 85 221 4.0 8.0 0.00 0.00 0.00 64 1012.9
20220705135430 85 225 4.0 8.0 0.00 0.00 0.00 64 1012.9
20220705134931 84 217 4.0 8.0 0.00 0.00 0.00 64 1012.8
20220705134431 84 222 3.0 7.0 0.00 0.00 0.00 65 1012.8
20220705133931 84 224 3.0 7.0 0.00 0.00 0.00 65 1012.8
20220705133432 84 218 4.0 7.0 0.00 0.00 0.00 65 1012.9
20220705132929 84 236 3.0 7.0 0.00 0.00 0.00 67 1012.9
20220705132428 84 239 2.0 6.0 0.00 0.00 0.00 67 1013.0
20220705131932 84 263 3.0 6.0 0.00 0.00 0.00 67 1013.0
20220705131429 84 235 4.0 7.0 0.00 0.00 0.00 67 1012.8
20220705130924 83 228 4.0 7.0 0.00 0.00 0.00 67 1012.8
20220705130424 83 202 4.0 8.0 0.00 0.00 0.00 67 1012.8
20220705125924 83 219 4.0 8.0 0.00 0.00 0.00 68 1012.8
20220705125423 82 223 3.0 8.0 0.00 0.00 0.00 69 1012.7
20220705124924 82 217 2.0 5.0 0.00 0.00 0.00 70 1012.7
20220705124423 81 211 2.0 5.0 0.00 0.00 0.00 71 1012.7
20220705123924 81 217 3.0 5.0 0.00 0.01 0.00 70 1012.8
20220705123423 82 217 2.0 5.0 0.00 0.01 0.00 70 1012.7
20220705122924 82 213 2.0 5.0 0.00 0.01 0.00 70 1012.7
20220705122425 82 192 2.0 5.0 0.00 0.01 0.00 69 1012.7
20220705121923 82 205 3.0 6.0 0.00 0.01 0.00 70 1012.6
20220705121424 82 225 3.0 6.0 0.00 0.01 0.00 70 1012.6
20220705120926 82 263 3.0 5.0 0.00 0.01 0.00 69 1012.4
20220705120424 82 225 3.0 5.0 0.00 0.01 0.00 70 1012.6
20220705115923 82 242 3.0 6.0 0.00 0.04 0.00 70 1012.7
20220705115423 82 245 2.0 6.0 0.00 0.05 0.00 69 1012.8
20220705114424 81 218 3.0 6.0 0.00 0.05 0.00 69 1012.6
20220705113923 81 218 3.0 6.0 0.00 0.05 0.00 69 1012.6
20220705113424 81 207 3.0 9.0 0.00 0.05 0.00 70 1012.4
20220705112922 81 234 4.0 9.0 0.00 0.05 0.00 70 1012.4
20220705112424 81 213 4.0 8.0 0.00 0.05 0.00 69 1012.3
20220705111921 81 213 4.0 9.0 0.00 0.05 0.00 69 1012.3
20220705111422 81 196 5.0 9.0 0.00 0.05 0.00 69 1012.3
20220705110921 81 228 5.0 9.0 0.00 0.05 0.00 69 1012.3
20220705110424 81 223 5.0 9.0 0.00 0.05 0.00 70 1012.3
20220705105921 81 225 5.0 9.0 0.00 0.05 0.00 70 1012.4
20220705105420 81 212 5.0 10.0 0.00 0.05 0.00 70 1012.3
20220705104922 81 222 6.0 10.0 0.00 0.05 0.00 70 1012.2
20220705104421 81 250 5.0 9.0 0.00 0.05 0.00 70 1012.0
20220705103915 81 200 5.0 11.0 0.00 0.06 0.00 70 1012.1
20220705103410 81 229 5.0 11.0 0.00 0.06 0.00 70 1012.2
20220705102905 81 198 5.0 11.0 0.00 0.07 0.00 70 1012.2
20220705102357 81 221 5.0 11.0 0.00 0.10 0.00 70 1012.2
20220705101851 82 215 5.0 9.0 0.00 0.11 0.00 70 1012.2
20220705101343 82 219 5.0 10.0 0.00 0.14 0.00 70 1012.2
20220705100837 82 221 5.0 10.0 0.00 0.16 0.00 70 1012.4
20220705100330 82 228 5.0 8.0 0.00 0.18 0.00 70 1012.3
20220705095825 82 203 4.0 7.0 0.00 0.19 0.00 70 1012.2
20220705095326 82 217 4.0 7.0 0.00 0.19 0.00 70 1012.3
20220705094825 82 228 3.0 7.0 0.00 0.19 0.00 70 1012.6
20220705094326 82 217 3.0 6.0 0.00 0.20 0.00 71 1012.6
20220705093826 82 232 2.0 6.0 0.00 0.20 0.00 71 1012.7
20220705093323 82 222 3.0 6.0 0.00 0.21 0.00 71 1012.7
20220705092824 82 209 3.0 6.0 0.00 0.21 0.00 71 1012.6
20220705092319 82 234 3.0 6.0 0.00 0.21 0.00 71 1012.3
20220705091820 82 227 3.0 6.0 0.00 0.21 0.00 71 1012.4
20220705091319 82 233 3.0 6.0 0.00 0.22 0.00 71 1012.4
20220705090817 81 235 3.0 6.0 0.00 0.22 0.00 72 1012.3
20220705090318 81 231 3.0 6.0 0.00 0.22 0.00 72 1012.2
20220705085816 81 219 3.0 5.0 0.00 0.22 0.00 72 1012.1
20220705085316 81 215 3.0 5.0 0.00 0.23 0.00 72 1012.1
20220705084817 81 213 3.0 5.0 0.00 0.23 0.00 73 1012.0
20220705084316 81 227 2.0 4.0 0.00 0.23 0.00 73 1012.1
20220705083818 81 218 2.0 4.0 0.00 0.23 0.00 73 1012.1
20220705083316 81 220 2.0 4.0 0.00 0.23 0.00 73 1012.1
20220705082816 82 227 2.0 4.0 0.00 0.23 0.00 72 1012.1
20220705082310 82 215 2.0 5.0 0.00 0.28 0.00 73 1012.2
20220705081804 81 226 2.0 5.0 0.00 0.28 0.00 73 1012.2
20220705081259 82 210 3.0 6.0 0.00 0.28 0.00 73 1012.3
20220705080752 82 201 2.0 6.0 0.00 0.28 0.00 73 1012.1
20220705080248 82 250 2.0 6.0 0.00 0.28 0.00 73 1012.1
20220705075741 82 223 2.0 6.0 0.00 0.45 0.00 73 1012.0
20220705075234 82 218 3.0 5.0 0.00 0.59 0.00 72 1012.1
20220705074729 82 198 3.0 6.0 0.00 0.60 0.00 72 1012.1
20220705074223 82 216 3.0 6.0 0.00 0.60 0.00 72 1012.1
20220705073717 82 217 3.0 6.0 0.00 0.61 0.00 72 1012.1
20220705073212 82 222 3.0 6.0 0.00 0.62 0.00 72 1012.2
20220705072704 82 205 3.0 6.0 0.00 0.62 0.00 72 1012.2
20220705072159 82 229 3.0 6.0 0.00 0.62 0.00 72 1012.3
20220705071653 82 225 3.0 7.0 0.00 0.62 0.00 72 1012.3
20220705071149 82 217 3.0 7.0 0.00 0.62 0.00 72 1012.3
20220705070642 82 238 3.0 5.0 0.00 0.62 0.00 72 1012.4
20220705070135 82 225 3.0 5.0 0.00 0.62 0.00 72 1012.4
20220705065627 83 232 4.0 6.0 0.00 0.62 0.00 72 1012.4
20220705065121 83 190 4.0 6.0 0.00 0.62 0.00 72 1012.4
20220705064617 83 230 4.0 6.0 0.00 0.62 0.00 72 1012.4
20220705064111 82 225 4.0 6.0 0.00 0.62 0.00 72 1012.4
20220705063603 83 246 4.0 8.0 0.00 0.62 0.00 72 1012.6
20220705063059 83 232 4.0 8.0 0.00 0.62 0.00 72 1012.7
20220705062551 83 184 4.0 8.0 0.00 0.62 0.00 72 1012.6
20220705062047 83 232 5.0 8.0 0.00 0.62 0.00 72 1012.7
20220705061541 83 212 4.0 8.0 0.00 0.62 0.00 72 1012.7
20220705061038 83 226 4.0 8.0 0.00 0.62 0.00 72 1012.7
20220705060530 83 212 4.0 8.0 0.00 0.62 0.00 71 1012.7
20220705060023 83 232 4.0 7.0 0.00 0.62 0.00 71 1012.6
20220705055523 83 218 4.0 7.0 0.00 0.62 0.00 71 1012.6
20220705055010 83 221 4.0 7.0 0.00 0.62 0.00 71 1012.6
20220705054506 83 229 4.0 7.0 0.00 0.62 0.00 71 1012.4
20220705053959 83 221 4.0 7.0 0.00 0.62 0.00 71 1012.6
20220705053453 84 214 4.0 7.0 0.00 0.62 0.00 71 1012.6
20220705052946 84 220 4.0 6.0 0.00 0.62 0.00 70 1012.3
20220705052440 84 220 4.0 7.0 0.00 0.62 0.00 70 1012.4
20220705051935 84 223 4.0 7.0 0.00 0.62 0.00 70 1012.4
20220705051430 84 204 4.0 7.0 0.00 0.62 0.00 70 1012.4
20220705050922 84 219 4.0 8.0 0.00 0.62 0.00 70 1012.3
20220705050415 84 215 4.0 8.0 0.00 0.62 0.00 70 1012.3
20220705045909 84 218 4.0 8.0 0.00 0.62 0.62 69 1012.3
20220705045404 84 207 4.0 8.0 0.00 0.62 0.62 69 1012.2
20220705044857 85 213 4.0 7.0 0.00 0.62 0.62 70 1012.2
20220705044354 85 229 4.0 7.0 0.00 0.62 0.62 69 1012.2
20220705043849 85 231 4.0 8.0 0.00 0.62 0.62 69 1012.1
20220705043340 85 215 4.0 8.0 0.00 0.62 0.62 69 1012.0
20220705042834 85 227 4.0 7.0 0.00 0.62 0.62 69 1012.0
20220705042327 85 221 4.0 7.0 0.00 0.62 0.62 69 1012.1
20220705041824 85 226 4.0 7.0 0.00 0.62 0.62 69 1012.0
20220705041318 85 216 4.0 7.0 0.00 0.62 0.62 68 1011.9
20220705040811 85 241 4.0 9.0 0.00 0.62 0.62 68 1011.9
20220705040304 86 211 4.0 9.0 0.00 0.62 0.62 68 1011.9
20220705035758 86 236 4.0 9.0 0.00 0.62 0.62 68 1011.8
20220705035252 86 205 4.0 9.0 0.00 0.62 0.62 68 1011.8
20220705034749 86 226 5.0 9.0 0.00 0.62 0.62 68 1011.7
20220705034242 86 212 5.0 9.0 0.00 0.62 0.62 67 1011.7
20220705033735 86 186 5.0 8.0 0.00 0.62 0.62 67 1011.7
20220705033229 86 214 5.0 9.0 0.00 0.62 0.62 67 1011.5
20220705032725 87 234 5.0 9.0 0.00 0.62 0.62 66 1011.5
20220705032220 87 190 5.0 9.0 0.00 0.62 0.62 66 1011.5
20220705031710 87 234 4.0 10.0 0.00 0.62 0.62 65 1011.5